Time;durP1;ratioP1;P1;durP2;ratioP2;P2;SDS_P1;SDS_P2;PMS_P1;PMS_P2;Temp;Humidity;BMP_temperature;BMP_pressure;BME280_temperature;BME280_humidity;BME280_pressure;Samples;Min_cycle;Max_cycle;Signal;HPM_P1;HPM_P2
2023/01/03 00:01:51;;;;;;;23.75;16.75;;;;;;;;;;4986586;28;100002;-76
2023/01/03 00:04:19;;;;;;;27.60;15.15;;;;;;;;;;4986274;28;98352;-76
2023/01/03 00:06:47;;;;;;;21.50;14.93;;;;;;;;;;4986647;28;99398;-76
2023/01/03 00:09:14;;;;;;;28.10;14.82;;;;;;;;;;4986190;28;99970;-77
2023/01/03 00:14:28;;;;;;;18.13;13.73;;;;;;;;;;4986841;28;100112;-76
2023/01/03 00:16:55;;;;;;;17.90;13.45;;;;;;;;;;4986971;28;98344;-77
2023/01/03 00:19:23;;;;;;;16.85;13.25;;;;;;;;;;4986860;28;99553;-77
2023/01/03 00:21:49;;;;;;;18.35;14.45;;;;;;;;;;4986190;28;100572;-77
2023/01/03 00:24:16;;;;;;;19.55;15.45;;;;;;;;;;4986592;28;98330;-78
2023/01/03 00:26:44;;;;;;;23.23;16.38;;;;;;;;;;4986643;28;99562;-77
2023/01/03 00:29:11;;;;;;;19.40;15.95;;;;;;;;;;4986621;28;99119;-78
2023/01/03 00:31:38;;;;;;;22.65;15.00;;;;;;;;;;4989207;28;98482;-77
2023/01/03 00:34:04;;;;;;;23.42;15.65;;;;;;;;;;4986707;28;99980;-77
2023/01/03 00:36:31;;;;;;;22.35;15.05;;;;;;;;;;4987312;28;98292;-77
2023/01/03 00:38:57;;;;;;;20.77;15.48;;;;;;;;;;4986195;28;99804;-77
2023/01/03 00:41:24;;;;;;;24.02;15.80;;;;;;;;;;4988756;28;98969;-76
2023/01/03 00:43:51;;;;;;;21.50;15.13;;;;;;;;;;4990471;28;98271;-77
2023/01/03 00:46:18;;;;;;;22.23;15.63;;;;;;;;;;4987332;27;98457;-78
2023/01/03 00:48:45;;;;;;;26.00;15.82;;;;;;;;;;4986336;28;100058;-78
2023/01/03 00:51:19;;;;;;;24.30;15.13;;;;;;;;;;4986678;28;98222;-78
2023/01/03 00:53:47;;;;;;;20.10;14.57;;;;;;;;;;4988617;28;98786;-76
2023/01/03 00:56:15;;;;;;;17.23;13.98;;;;;;;;;;4988994;28;99051;-76
2023/01/03 00:58:41;;;;;;;20.38;14.23;;;;;;;;;;4989419;28;98525;-76
2023/01/03 01:01:12;;;;;;;22.50;15.43;;;;;;;;;;4989211;28;100024;-76
2023/01/03 01:03:40;;;;;;;19.73;13.68;;;;;;;;;;4989986;28;98289;-75
2023/01/03 01:06:14;;;;;;;19.77;12.88;;;;;;;;;;4989540;28;99491;-76
2023/01/03 01:08:42;;;;;;;17.42;12.85;;;;;;;;;;4989143;28;99316;-76
2023/01/03 01:11:09;;;;;;;17.65;12.50;;;;;;;;;;4988544;28;98347;-76
2023/01/03 01:13:36;;;;;;;21.35;13.10;;;;;;;;;;4989047;28;98630;-76
2023/01/03 01:16:06;;;;;;;21.65;12.68;;;;;;;;;;4992629;28;98650;-76
2023/01/03 01:18:33;;;;;;;21.75;13.77;;;;;;;;;;4989019;28;99132;-76
2023/01/03 01:21:03;;;;;;;15.82;13.55;;;;;;;;;;4988892;28;100171;-79
2023/01/03 01:23:29;;;;;;;16.58;12.60;;;;;;;;;;4989498;28;98485;-77
2023/01/03 01:25:58;;;;;;;16.17;11.90;;;;;;;;;;4989505;28;99660;-77
2023/01/03 01:28:25;;;;;;;16.48;11.88;;;;;;;;;;4988660;28;99163;-77
2023/01/03 01:30:51;;;;;;;12.98;11.40;;;;;;;;;;4990156;28;98510;-76
2023/01/03 01:33:17;;;;;;;14.88;11.23;;;;;;;;;;4989511;28;99444;-76
2023/01/03 01:35:44;;;;;;;18.92;12.35;;;;;;;;;;4987385;28;99999;-76
2023/01/03 01:38:10;;;;;;;32.58;13.32;;;;;;;;;;4992390;28;98912;-77
2023/01/03 01:40:36;;;;;;;18.15;12.40;;;;;;;;;;4989602;28;99020;-77
2023/01/03 01:46:17;;;;;;;15.38;11.63;;;;;;;;;;4989725;28;98765;-77
2023/01/03 01:48:43;;;;;;;19.95;13.40;;;;;;;;;;4988245;28;99032;-77
2023/01/03 01:51:10;;;;;;;22.00;15.23;;;;;;;;;;4989156;28;98481;-78
2023/01/03 01:53:38;;;;;;;24.35;15.15;;;;;;;;;;4989216;28;99439;-77
2023/01/03 01:56:07;;;;;;;22.30;15.02;;;;;;;;;;4988279;28;99153;-75
2023/01/03 01:58:35;;;;;;;22.75;16.38;;;;;;;;;;4988544;28;98460;-78
2023/01/03 02:01:02;;;;;;;27.65;15.75;;;;;;;;;;4991346;28;100254;-76
2023/01/03 02:03:29;;;;;;;23.67;16.38;;;;;;;;;;4988195;28;98615;-76
2023/01/03 02:05:55;;;;;;;23.38;16.50;;;;;;;;;;4988709;28;98729;-76
2023/01/03 02:08:23;;;;;;;24.10;17.20;;;;;;;;;;4988042;28;100180;-77
2023/01/03 02:10:52;;;;;;;29.48;17.23;;;;;;;;;;4987436;28;98387;-76
2023/01/03 02:13:30;;;;;;;32.60;18.38;;;;;;;;;;4989127;28;98422;-76
2023/01/03 02:16:15;;;;;;;23.40;17.13;;;;;;;;;;4988591;28;99995;-76
2023/01/03 02:19:12;;;;;;;22.88;18.02;;;;;;;;;;4988752;28;98309;-76
2023/01/03 02:21:50;;;;;;;24.85;17.75;;;;;;;;;;4988339;28;99562;-76
2023/01/03 02:24:20;;;;;;;31.95;18.27;;;;;;;;;;4990942;28;98582;-76
2023/01/03 02:26:49;;;;;;;34.90;19.52;;;;;;;;;;4987862;28;98969;-77
2023/01/03 02:29:24;;;;;;;24.30;19.25;;;;;;;;;;4988383;28;99014;-76
2023/01/03 02:32:12;;;;;;;29.05;19.35;;;;;;;;;;4988254;28;98305;-76
2023/01/03 02:34:43;;;;;;;27.02;17.98;;;;;;;;;;4988046;28;99814;-76
2023/01/03 02:37:28;;;;;;;30.98;19.27;;;;;;;;;;4988084;28;100224;-76
2023/01/03 02:39:59;;;;;;;29.33;19.02;;;;;;;;;;4987591;28;98535;-77
2023/01/03 02:45:19;;;;;;;32.80;21.80;;;;;;;;;;4990948;28;100326;-76
2023/01/03 02:47:51;;;;;;;37.90;22.85;;;;;;;;;;4988082;28;98932;-76
2023/01/03 02:50:19;;;;;;;37.70;23.52;;;;;;;;;;4988354;28;99139;-77
2023/01/03 02:52:48;;;;;;;35.60;22.50;;;;;;;;;;4986559;28;98442;-76
2023/01/03 02:55:22;;;;;;;107.93;26.15;;;;;;;;;;4988226;28;99849;-76
2023/01/03 02:57:51;;;;;;;198.48;34.45;;;;;;;;;;4988096;28;100333;-77
2023/01/03 03:00:19;;;;;;;247.90;30.33;;;;;;;;;;4988014;28;98344;-77
2023/01/03 03:02:50;;;;;;;228.82;31.73;;;;;;;;;;4987446;28;98513;-77
2023/01/03 03:05:22;;;;;;;435.27;45.42;;;;;;;;;;4987971;28;100748;-77
2023/01/03 03:07:49;;;;;;;326.67;35.63;;;;;;;;;;4990691;28;98199;-77
2023/01/03 03:13:12;;;;;;;433.83;39.72;;;;;;;;;;4987711;28;98253;-77
2023/01/03 03:15:48;;;;;;;402.23;37.83;;;;;;;;;;4987396;28;99117;-77
2023/01/03 03:18:17;;;;;;;528.63;50.85;;;;;;;;;;4987195;28;99061;-77
2023/01/03 03:26:18;;;;;;;441.25;42.17;;;;;;;;;;4987649;28;99936;-77
2023/01/03 03:28:47;;;;;;;275.85;43.35;;;;;;;;;;4986758;28;98309;-78
2023/01/03 03:31:21;;;;;;;508.02;48.72;;;;;;;;;;4990792;28;99695;-77
2023/01/03 03:33:56;;;;;;;527.38;47.03;;;;;;;;;;4987279;28;98363;-77
2023/01/03 03:36:22;;;;;;;492.80;46.55;;;;;;;;;;4987798;28;98722;-78
2023/01/03 03:38:49;;;;;;;528.58;47.33;;;;;;;;;;4987309;28;100068;-78
2023/01/03 03:47:14;;;;;;;631.67;53.37;;;;;;;;;;4987470;28;100186;-77
2023/01/03 03:49:42;;;;;;;583.88;56.03;;;;;;;;;;4986366;28;98138;-77
2023/01/03 03:52:14;;;;;;;562.30;61.13;;;;;;;;;;4987474;28;98765;-77
2023/01/03 03:54:43;;;;;;;634.75;60.78;;;;;;;;;;4989925;28;100052;-77
2023/01/03 03:57:14;;;;;;;683.75;62.13;;;;;;;;;;4986276;28;99613;-77
2023/01/03 03:59:42;;;;;;;766.53;58.35;;;;;;;;;;4986824;28;99999;-76
2023/01/03 04:02:10;;;;;;;732.63;62.10;;;;;;;;;;4986980;28;98348;-77
2023/01/03 04:04:41;;;;;;;933.20;83.25;;;;;;;;;;4986348;28;99662;-76
2023/01/03 04:07:08;;;;;;;603.35;78.88;;;;;;;;;;4987139;28;98917;-76
2023/01/03 04:09:34;;;;;;;771.88;71.97;;;;;;;;;;4984889;28;98752;-77
2023/01/03 04:12:01;;;;;;;848.85;80.38;;;;;;;;;;4987227;28;98486;-77
2023/01/03 04:14:27;;;;;;;730.47;74.35;;;;;;;;;;4986671;28;99006;-77
2023/01/03 04:16:53;;;;;;;640.03;66.82;;;;;;;;;;4989867;28;98223;-77
2023/01/03 04:19:20;;;;;;;788.03;72.60;;;;;;;;;;4988420;28;99884;-77
2023/01/03 04:21:46;;;;;;;768.80;76.00;;;;;;;;;;4988450;28;98389;-76
2023/01/03 04:24:13;;;;;;;730.60;79.20;;;;;;;;;;4987512;28;98716;-76
2023/01/03 04:26:39;;;;;;;557.28;74.53;;;;;;;;;;4987140;28;99150;-77
2023/01/03 04:29:06;;;;;;;524.85;61.75;;;;;;;;;;4987279;28;98351;-78
2023/01/03 04:31:32;;;;;;;458.90;58.42;;;;;;;;;;4989054;28;99541;-76
2023/01/03 04:33:58;;;;;;;608.17;68.10;;;;;;;;;;4989487;28;99176;-76
2023/01/03 04:36:25;;;;;;;611.30;73.35;;;;;;;;;;4992630;28;98299;-76
2023/01/03 04:38:51;;;;;;;706.22;79.93;;;;;;;;;;4989990;28;99068;-76
2023/01/03 04:41:18;;;;;;;456.23;65.72;;;;;;;;;;4991062;27;98309;-77
2023/01/03 04:44:03;;;;;;;386.70;61.35;;;;;;;;;;4989941;28;98501;-77
2023/01/03 04:46:34;;;;;;;457.00;66.63;;;;;;;;;;4988629;28;99220;-76
2023/01/03 04:49:01;;;;;;;320.73;60.80;;;;;;;;;;4989852;28;98182;-78
2023/01/03 04:51:28;;;;;;;265.00;55.90;;;;;;;;;;4990197;28;98513;-77
2023/01/03 04:53:54;;;;;;;286.17;57.40;;;;;;;;;;4989021;28;100177;-77
2023/01/03 04:56:25;;;;;;;251.82;59.70;;;;;;;;;;4989802;28;98264;-76
2023/01/03 04:58:51;;;;;;;160.45;54.30;;;;;;;;;;4991628;28;98932;-77
2023/01/03 05:01:18;;;;;;;133.50;46.15;;;;;;;;;;4989596;28;98237;-77
2023/01/03 05:03:44;;;;;;;202.35;62.85;;;;;;;;;;4988920;28;98514;-76
2023/01/03 05:06:11;;;;;;;155.02;56.28;;;;;;;;;;4989287;28;99249;-76
2023/01/03 05:08:38;;;;;;;174.70;57.95;;;;;;;;;;4989125;28;98344;-77
2023/01/03 05:11:05;;;;;;;150.32;58.08;;;;;;;;;;4989693;28;98478;-76
2023/01/03 05:13:32;;;;;;;139.00;56.65;;;;;;;;;;4988252;28;98903;-76
2023/01/03 05:16:12;;;;;;;145.48;58.05;;;;;;;;;;4989825;28;98302;-76
2023/01/03 05:18:39;;;;;;;152.57;62.85;;;;;;;;;;4989171;28;99522;-76
2023/01/03 05:26:38;;;;;;;124.80;56.22;;;;;;;;;;4989578;27;98897;-77
2023/01/03 05:29:06;;;;;;;118.10;55.33;;;;;;;;;;4989321;28;98557;-77
2023/01/03 05:31:32;;;;;;;142.65;59.97;;;;;;;;;;4989209;28;99669;-77
2023/01/03 05:33:59;;;;;;;140.13;58.63;;;;;;;;;;4989172;28;99103;-77
2023/01/03 05:36:25;;;;;;;124.18;56.58;;;;;;;;;;4988880;28;98344;-77
2023/01/03 05:38:51;;;;;;;170.82;61.10;;;;;;;;;;4989250;28;99431;-77
2023/01/03 05:41:58;;;;;;;137.65;57.63;;;;;;;;;;4989101;28;99463;-77
2023/01/03 05:44:05;;;;;;;150.50;58.60;;;;;;;;;;4992258;28;98237;-77
2023/01/03 05:46:31;;;;;;;173.82;58.88;;;;;;;;;;4988565;28;100259;-77
2023/01/03 05:48:58;;;;;;;136.77;57.42;;;;;;;;;;4987857;28;99759;-77
2023/01/03 05:51:24;;;;;;;145.25;59.20;;;;;;;;;;4988493;28;99665;-77
2023/01/03 05:53:50;;;;;;;153.77;57.95;;;;;;;;;;4989943;27;99052;-77
2023/01/03 05:56:17;;;;;;;158.70;59.83;;;;;;;;;;4988577;28;98728;-77
2023/01/03 05:58:43;;;;;;;134.55;56.20;;;;;;;;;;4988741;28;98418;-77
2023/01/03 06:01:10;;;;;;;131.63;55.97;;;;;;;;;;4988707;28;100025;-77
2023/01/03 06:03:37;;;;;;;125.82;56.78;;;;;;;;;;4988141;28;98638;-77
2023/01/03 06:06:05;;;;;;;121.03;55.53;;;;;;;;;;4992068;28;98735;-77
2023/01/03 06:08:31;;;;;;;118.68;55.88;;;;;;;;;;4988347;28;98300;-76
2023/01/03 06:10:58;;;;;;;129.63;55.42;;;;;;;;;;4987764;28;100110;-76
2023/01/03 06:13:24;;;;;;;122.65;55.00;;;;;;;;;;4987131;28;98996;-75
2023/01/03 06:18:36;;;;;;;101.40;50.47;;;;;;;;;;4988492;28;99093;-76
2023/01/03 06:21:03;;;;;;;97.40;47.60;;;;;;;;;;4988042;28;99130;-75
2023/01/03 06:23:29;;;;;;;98.72;48.90;;;;;;;;;;4987476;28;98241;-76
2023/01/03 06:25:56;;;;;;;81.05;42.65;;;;;;;;;;4988286;28;99550;-76
2023/01/03 06:28:22;;;;;;;91.13;46.08;;;;;;;;;;4992466;27;99724;-76
2023/01/03 06:30:48;;;;;;;87.65;43.08;;;;;;;;;;4988159;28;98692;-75
2023/01/03 06:33:15;;;;;;;98.90;48.85;;;;;;;;;;4987773;28;100288;-75
2023/01/03 06:35:41;;;;;;;94.22;44.60;;;;;;;;;;4987949;28;98303;-75
2023/01/03 06:38:07;;;;;;;99.15;47.13;;;;;;;;;;4987017;28;99706;-75
2023/01/03 06:40:34;;;;;;;90.90;45.30;;;;;;;;;;4987703;28;99827;-76
2023/01/03 06:43:09;;;;;;;75.65;42.35;;;;;;;;;;4988228;28;98258;-76
2023/01/03 06:53:52;;;;;;;82.55;41.42;;;;;;;;;;4987326;28;100027;-75
2023/01/03 06:56:20;;;;;;;83.60;45.13;;;;;;;;;;4988658;28;98304;-76
2023/01/03 06:58:47;;;;;;;79.00;43.53;;;;;;;;;;4987235;28;99692;-76
2023/01/03 07:01:14;;;;;;;83.32;43.20;;;;;;;;;;4987973;28;99921;-76
2023/01/03 07:03:40;;;;;;;78.75;41.70;;;;;;;;;;4986821;28;98329;-76
2023/01/03 07:06:07;;;;;;;78.18;42.28;;;;;;;;;;4987084;28;99477;-76
2023/01/03 07:08:33;;;;;;;71.68;43.38;;;;;;;;;;4987520;28;100275;-76
2023/01/03 07:10:59;;;;;;;68.47;40.53;;;;;;;;;;4990758;28;98435;-76
2023/01/03 07:16:14;;;;;;;70.60;41.08;;;;;;;;;;4988615;27;98267;-76
2023/01/03 07:18:41;;;;;;;74.78;41.00;;;;;;;;;;4987639;28;99418;-76
2023/01/03 07:21:08;;;;;;;63.67;38.25;;;;;;;;;;4987207;28;99169;-76
2023/01/03 07:23:34;;;;;;;66.57;37.40;;;;;;;;;;4987103;28;99004;-76
2023/01/03 07:26:01;;;;;;;51.85;35.95;;;;;;;;;;4987311;28;99840;-76
2023/01/03 07:28:27;;;;;;;65.47;36.67;;;;;;;;;;4986050;28;99626;-77
2023/01/03 07:30:58;;;;;;;58.10;34.38;;;;;;;;;;4987546;28;98309;-76
2023/01/03 07:33:25;;;;;;;56.33;36.22;;;;;;;;;;4989615;28;98683;-76
2023/01/03 07:35:51;;;;;;;57.30;34.35;;;;;;;;;;4987564;28;98362;-77
2023/01/03 07:38:17;;;;;;;53.60;35.78;;;;;;;;;;4987727;28;99657;-77
2023/01/03 07:40:44;;;;;;;57.13;33.97;;;;;;;;;;4986417;28;99966;-77
2023/01/03 07:45:55;;;;;;;46.78;32.08;;;;;;;;;;4988535;27;98630;-78
2023/01/03 07:48:22;;;;;;;52.50;32.80;;;;;;;;;;4986290;28;100306;-77
2023/01/03 07:50:48;;;;;;;56.67;34.08;;;;;;;;;;4987260;28;98300;-77
2023/01/03 07:53:17;;;;;;;48.95;31.20;;;;;;;;;;4986897;28;99421;-77
2023/01/03 07:55:46;;;;;;;45.88;30.35;;;;;;;;;;4990189;28;99160;-77
2023/01/03 07:58:12;;;;;;;54.92;29.45;;;;;;;;;;4995650;28;99090;-77
2023/01/03 08:00:40;;;;;;;47.60;28.83;;;;;;;;;;4996435;28;99118;-78
2023/01/03 08:03:07;;;;;;;50.53;28.83;;;;;;;;;;4991072;28;98604;-78
2023/01/03 08:05:37;;;;;;;42.72;26.75;;;;;;;;;;4989654;28;98728;-79
2023/01/03 08:08:04;;;;;;;41.55;26.70;;;;;;;;;;4991100;28;99985;-78
2023/01/03 08:13:16;;;;;;;44.45;26.90;;;;;;;;;;4990482;28;99420;-78
2023/01/03 08:15:44;;;;;;;38.58;25.83;;;;;;;;;;4989224;28;99122;-79
2023/01/03 08:18:11;;;;;;;49.28;28.58;;;;;;;;;;4993104;28;98256;-79
2023/01/03 08:20:37;;;;;;;50.63;30.40;;;;;;;;;;4990078;28;98909;-79
2023/01/03 08:23:04;;;;;;;41.83;28.67;;;;;;;;;;4989754;28;98288;-79
2023/01/03 08:25:30;;;;;;;40.95;25.30;;;;;;;;;;4990290;28;99068;-79
2023/01/03 08:27:57;;;;;;;42.22;25.95;;;;;;;;;;4990379;28;100119;-81
2023/01/03 08:30:23;;;;;;;49.88;25.73;;;;;;;;;;4990280;28;98481;-82
2023/01/03 08:32:52;;;;;;;51.67;24.23;;;;;;;;;;4990825;28;98705;-82
2023/01/03 08:35:19;;;;;;;36.60;25.80;;;;;;;;;;4991879;28;99558;-83
2023/01/03 08:37:47;;;;;;;39.03;24.67;;;;;;;;;;4990202;28;98295;-83
2023/01/03 08:40:14;;;;;;;37.90;22.92;;;;;;;;;;4993716;28;99529;-82
2023/01/03 08:42:41;;;;;;;34.28;21.65;;;;;;;;;;4990161;28;98291;-82
2023/01/03 08:45:09;;;;;;;39.47;21.73;;;;;;;;;;4990688;28;99502;-81
2023/01/03 08:47:35;;;;;;;32.72;21.00;;;;;;;;;;4991411;27;98140;-82
2023/01/03 08:50:02;;;;;;;38.58;20.15;;;;;;;;;;4991237;28;98285;-82
2023/01/03 08:52:28;;;;;;;33.85;20.02;;;;;;;;;;4990130;28;99472;-82
2023/01/03 08:55:00;;;;;;;31.08;21.50;;;;;;;;;;4991310;28;100114;-81
2023/01/03 08:57:26;;;;;;;34.30;20.17;;;;;;;;;;4991920;28;98317;-81
2023/01/03 08:59:53;;;;;;;27.40;18.60;;;;;;;;;;4994872;28;99601;-81
2023/01/03 09:02:19;;;;;;;35.05;20.77;;;;;;;;;;4994608;28;98292;-82
2023/01/03 09:04:46;;;;;;;26.55;19.10;;;;;;;;;;4997541;28;98898;-81
2023/01/03 09:07:13;;;;;;;25.52;18.98;;;;;;;;;;4996344;28;99191;-80
2023/01/03 09:09:40;;;;;;;33.22;20.10;;;;;;;;;;4990705;28;98244;-81
2023/01/03 09:12:06;;;;;;;29.45;15.00;;;;;;;;;;4990122;28;99122;-81
2023/01/03 09:14:32;;;;;;;32.20;20.67;;;;;;;;;;4989553;28;99119;-82
2023/01/03 09:16:59;;;;;;;31.50;20.35;;;;;;;;;;4989610;28;98218;-81
2023/01/03 09:19:25;;;;;;;28.80;19.27;;;;;;;;;;4989094;28;98460;-81
2023/01/03 09:21:52;;;;;;;27.70;20.05;;;;;;;;;;4993121;28;100173;-81
2023/01/03 09:24:18;;;;;;;32.72;20.15;;;;;;;;;;4989916;28;98875;-81
2023/01/03 09:26:44;;;;;;;34.10;20.10;;;;;;;;;;4988997;28;100075;-81
2023/01/03 09:29:19;;;;;;;32.10;20.95;;;;;;;;;;4990416;28;98112;-81
2023/01/03 09:31:46;;;;;;;35.67;21.65;;;;;;;;;;4988751;28;98586;-81
2023/01/03 09:34:12;;;;;;;38.03;21.50;;;;;;;;;;4989487;28;99734;-80
2023/01/03 09:36:39;;;;;;;46.15;24.83;;;;;;;;;;4989421;28;98305;-81
2023/01/03 09:39:05;;;;;;;51.75;22.95;;;;;;;;;;4990405;28;98712;-81
2023/01/03 09:41:32;;;;;;;38.35;23.63;;;;;;;;;;4989501;28;98940;-82
2023/01/03 09:44:01;;;;;;;44.33;23.58;;;;;;;;;;4993458;28;98261;-81
2023/01/03 09:46:28;;;;;;;49.40;25.00;;;;;;;;;;4989418;28;99230;-82
2023/01/03 09:48:55;;;;;;;47.13;21.70;;;;;;;;;;4989821;28;98460;-80
2023/01/03 10:05:42;;;;;;;;;;;;;;;;;;4990711;27;98272;-80
2023/01/03 10:08:08;;;;;;;48.55;25.23;;;;;;;;;;4991164;28;127870;-80
2023/01/03 10:10:55;;;;;;;59.13;26.77;;;;;;;;;;4988206;28;98506;-80
2023/01/03 10:13:21;;;;;;;56.60;25.65;;;;;;;;;;4988517;28;99048;-80
2023/01/03 10:16:06;;;;;;;49.22;27.00;;;;;;;;;;4988080;28;101327;-79
2023/01/03 10:18:48;;;;;;;59.50;26.75;;;;;;;;;;4988635;28;98399;-79
2023/01/03 10:21:20;;;;;;;55.90;27.85;;;;;;;;;;4988859;28;98679;-79
2023/01/03 10:23:47;;;;;;;56.33;28.88;;;;;;;;;;4986899;28;99003;-79
2023/01/03 10:26:13;;;;;;;63.80;28.95;;;;;;;;;;4988189;28;98367;-79
2023/01/03 10:28:42;;;;;;;56.30;27.55;;;;;;;;;;4988020;27;98582;-79
2023/01/03 10:31:47;;;;;;;57.90;26.35;;;;;;;;;;4991480;28;99321;-79
2023/01/03 10:34:14;;;;;;;63.88;29.70;;;;;;;;;;4965901;28;99364;-79
2023/01/03 10:36:40;;;;;;;61.50;28.08;;;;;;;;;;4965023;28;99007;-80
2023/01/03 10:39:08;;;;;;;61.63;29.45;;;;;;;;;;4976116;28;98354;-79
2023/01/03 10:41:34;;;;;;;54.35;27.85;;;;;;;;;;4988423;28;99525;-79
2023/01/03 10:44:02;;;;;;;66.40;28.40;;;;;;;;;;4987701;28;100069;-79
2023/01/03 10:46:29;;;;;;;63.60;27.85;;;;;;;;;;4988360;28;98242;-78
2023/01/03 10:49:12;;;;;;;51.97;27.67;;;;;;;;;;4988182;28;99527;-78
2023/01/03 10:51:56;;;;;;;49.83;28.08;;;;;;;;;;4988280;28;99114;-79
2023/01/03 10:54:25;;;;;;;49.92;27.35;;;;;;;;;;4992023;28;98652;-79
2023/01/03 10:56:51;;;;;;;59.92;28.50;;;;;;;;;;4988241;28;100460;-79
2023/01/03 10:59:28;;;;;;;52.97;27.48;;;;;;;;;;4988075;28;98253;-79
2023/01/03 11:01:59;;;;;;;54.00;26.45;;;;;;;;;;4988274;28;98649;-78
2023/01/03 11:04:26;;;;;;;50.22;27.48;;;;;;;;;;4987014;28;100093;-79
2023/01/03 11:07:00;;;;;;;39.70;25.48;;;;;;;;;;4988760;28;98950;-77
2023/01/03 11:09:29;;;;;;;55.70;26.50;;;;;;;;;;4987233;28;99531;-78
2023/01/03 11:12:01;;;;;;;36.58;22.02;;;;;;;;;;4987255;28;99027;-78
2023/01/03 11:14:28;;;;;;;56.50;24.47;;;;;;;;;;4990426;28;98813;-78
2023/01/03 11:17:02;;;;;;;42.63;25.65;;;;;;;;;;4987876;28;99315;-78
2023/01/03 11:19:30;;;;;;;41.58;25.70;;;;;;;;;;4987052;28;98273;-79
2023/01/03 11:22:02;;;;;;;53.03;25.95;;;;;;;;;;4988284;28;98506;-79
2023/01/03 11:24:35;;;;;;;52.55;26.42;;;;;;;;;;4987886;28;99994;-79
2023/01/03 11:27:07;;;;;;;40.25;26.05;;;;;;;;;;4987635;28;98296;-79
2023/01/03 11:29:52;;;;;;;44.28;24.90;;;;;;;;;;4988199;28;98592;-79
2023/01/03 11:32:40;;;;;;;35.47;22.85;;;;;;;;;;4987956;28;100108;-78
2023/01/03 11:35:10;;;;;;;41.92;24.70;;;;;;;;;;4992390;28;98174;-79
2023/01/03 11:38:01;;;;;;;38.60;22.90;;;;;;;;;;4998382;28;98252;-78
2023/01/03 11:40:46;;;;;;;39.75;23.02;;;;;;;;;;4992343;28;98083;-79
2023/01/03 11:43:31;;;;;;;35.90;22.27;;;;;;;;;;4990415;28;98044;-78
2023/01/03 11:46:17;;;;;;;31.38;20.50;;;;;;;;;;4988106;28;99232;-78
2023/01/03 11:48:59;;;;;;;23.52;15.70;;;;;;;;;;4986079;28;98294;-78
2023/01/03 11:51:40;;;;;;;28.87;19.80;;;;;;;;;;4987704;28;99436;-78
2023/01/03 11:54:24;;;;;;;29.73;20.52;;;;;;;;;;4986650;28;100616;-78
2023/01/03 11:56:51;;;;;;;30.30;20.98;;;;;;;;;;4987848;28;98256;-78
2023/01/03 11:59:23;;;;;;;28.35;21.55;;;;;;;;;;4987983;28;99316;-78
2023/01/03 12:02:08;;;;;;;30.85;19.95;;;;;;;;;;4990406;28;99339;-78
2023/01/03 12:04:41;;;;;;;34.70;21.85;;;;;;;;;;4986534;28;99727;-78
2023/01/03 12:07:16;;;;;;;37.95;21.00;;;;;;;;;;4986457;28;100279;-78
2023/01/03 12:10:21;;;;;;;34.38;20.52;;;;;;;;;;4987946;28;98767;-78
2023/01/03 12:12:53;;;;;;;33.00;21.60;;;;;;;;;;4987552;28;98869;-79
2023/01/03 12:15:21;;;;;;;34.78;23.27;;;;;;;;;;4986541;28;99321;-78
2023/01/03 12:17:53;;;;;;;33.75;22.50;;;;;;;;;;4987146;28;98269;-78
2023/01/03 12:20:25;;;;;;;30.27;22.10;;;;;;;;;;4986851;28;98659;-78
2023/01/03 12:22:55;;;;;;;33.13;21.67;;;;;;;;;;4986537;28;99012;-79
2023/01/03 12:25:29;;;;;;;37.25;21.52;;;;;;;;;;4991259;28;98839;-80
2023/01/03 12:28:01;;;;;;;30.98;19.13;;;;;;;;;;4986838;28;99092;-79
2023/01/03 12:30:35;;;;;;;39.20;21.25;;;;;;;;;;4986562;28;98201;-78
2023/01/03 12:33:20;;;;;;;27.40;18.92;;;;;;;;;;4986032;28;99458;-78
2023/01/03 12:35:49;;;;;;;29.73;18.10;;;;;;;;;;4985939;28;99937;-78
2023/01/03 12:38:17;;;;;;;27.77;20.02;;;;;;;;;;4987661;28;98407;-78
2023/01/03 12:40:47;;;;;;;30.77;18.80;;;;;;;;;;4986740;28;99559;-78
2023/01/03 12:43:25;;;;;;;25.30;18.02;;;;;;;;;;4986734;27;100319;-78
2023/01/03 12:46:01;;;;;;;26.42;18.08;;;;;;;;;;4986874;28;98269;-78
2023/01/03 12:48:41;;;;;;;23.98;17.35;;;;;;;;;;4989691;28;99796;-78
2023/01/03 12:51:08;;;;;;;27.30;16.95;;;;;;;;;;4987653;28;98237;-78
2023/01/03 12:53:46;;;;;;;24.30;16.38;;;;;;;;;;4989535;28;99829;-78
2023/01/03 12:56:16;;;;;;;25.83;16.60;;;;;;;;;;4990132;28;99172;-78
2023/01/03 12:58:51;;;;;;;23.33;16.83;;;;;;;;;;4987823;28;99216;-77
2023/01/03 13:01:20;;;;;;;20.00;15.27;;;;;;;;;;4990641;27;98792;-77
2023/01/03 13:03:51;;;;;;;21.52;15.27;;;;;;;;;;4989821;28;99370;-78
2023/01/03 13:06:21;;;;;;;17.73;13.80;;;;;;;;;;4989846;28;98152;-77
2023/01/03 13:08:50;;;;;;;24.33;14.45;;;;;;;;;;4989462;28;99975;-77
2023/01/03 13:11:31;;;;;;;24.25;14.25;;;;;;;;;;4991399;28;98371;-77
2023/01/03 13:14:05;;;;;;;22.20;15.32;;;;;;;;;;4990229;28;99194;-78
2023/01/03 13:16:34;;;;;;;24.35;14.05;;;;;;;;;;4989342;28;100164;-77
2023/01/03 13:19:19;;;;;;;15.50;13.55;;;;;;;;;;4988831;28;98488;-78
2023/01/03 13:21:51;;;;;;;21.55;14.07;;;;;;;;;;4989939;28;98794;-78
2023/01/03 13:24:36;;;;;;;16.45;12.40;;;;;;;;;;4988473;28;100168;-77
2023/01/03 13:27:23;;;;;;;18.77;10.85;;;;;;;;;;4988765;28;98270;-77
2023/01/03 13:29:57;;;;;;;16.67;9.90;;;;;;;;;;4989098;28;98416;-77
2023/01/03 13:32:27;;;;;;;10.75;9.68;;;;;;;;;;4991642;28;99009;-77
2023/01/03 13:35:01;;;;;;;15.45;9.82;;;;;;;;;;4989318;28;99662;-77
2023/01/03 13:37:41;;;;;;;12.10;7.85;;;;;;;;;;4988870;28;100360;-77
2023/01/03 13:40:07;;;;;;;14.20;8.70;;;;;;;;;;4988667;28;98116;-77
2023/01/03 13:42:37;;;;;;;13.15;7.70;;;;;;;;;;4988911;28;99370;-77
2023/01/03 13:45:10;;;;;;;19.42;8.50;;;;;;;;;;4988765;28;99933;-77
2023/01/03 13:47:39;;;;;;;10.30;8.13;;;;;;;;;;4988399;28;98322;-76
2023/01/03 13:50:17;;;;;;;14.25;7.25;;;;;;;;;;4988309;28;98767;-77
2023/01/03 13:53:04;;;;;;;11.70;7.05;;;;;;;;;;4988340;28;100204;-77
2023/01/03 13:55:39;;;;;;;7.13;6.47;;;;;;;;;;4987510;28;98474;-77
2023/01/03 13:58:26;;;;;;;8.45;6.32;;;;;;;;;;4988943;28;99297;-77
2023/01/03 14:00:54;;;;;;;11.63;5.80;;;;;;;;;;4988317;28;98936;-77
2023/01/03 14:03:39;;;;;;;15.52;7.47;;;;;;;;;;4988353;28;99308;-76
2023/01/03 14:06:24;;;;;;;10.45;5.72;;;;;;;;;;4988434;28;100171;-77
2023/01/03 14:09:19;;;;;;;9.20;6.45;;;;;;;;;;4988338;28;98271;-77
2023/01/03 14:12:05;;;;;;;10.52;5.68;;;;;;;;;;4982505;28;98767;-77
2023/01/03 14:14:36;;;;;;;7.97;5.80;;;;;;;;;;4987792;28;99172;-77
2023/01/03 14:17:03;;;;;;;7.10;6.40;;;;;;;;;;4988078;28;98281;-77
2023/01/03 14:19:33;;;;;;;12.68;6.75;;;;;;;;;;4991160;28;98616;-77
2023/01/03 14:22:08;;;;;;;14.98;6.50;;;;;;;;;;4987927;28;98882;-77
2023/01/03 14:24:56;;;;;;;12.45;6.10;;;;;;;;;;4988390;28;99901;-77
2023/01/03 14:27:25;;;;;;;10.20;6.18;;;;;;;;;;4988139;28;100084;-77
2023/01/03 14:29:51;;;;;;;8.23;6.00;;;;;;;;;;4987673;28;98245;-77
2023/01/03 14:32:18;;;;;;;9.55;6.10;;;;;;;;;;4988316;28;99751;-77
2023/01/03 14:34:44;;;;;;;9.48;6.32;;;;;;;;;;4987896;28;99234;-77
2023/01/03 14:37:12;;;;;;;7.93;7.00;;;;;;;;;;4987765;28;98272;-76
2023/01/03 14:39:38;;;;;;;9.60;6.50;;;;;;;;;;4987937;28;99436;-77
2023/01/03 14:42:15;;;;;;;8.48;6.28;;;;;;;;;;4990610;28;100077;-77
2023/01/03 14:44:41;;;;;;;13.32;7.75;;;;;;;;;;4987329;28;99561;-77
2023/01/03 14:47:13;;;;;;;7.57;5.78;;;;;;;;;;4987674;28;100011;-77
2023/01/03 14:49:42;;;;;;;7.87;6.13;;;;;;;;;;4987213;28;98287;-75
2023/01/03 14:52:15;;;;;;;9.23;5.68;;;;;;;;;;4987983;28;99279;-76
2023/01/03 14:54:43;;;;;;;18.13;6.38;;;;;;;;;;4987331;28;100470;-77
2023/01/03 14:57:16;;;;;;;14.05;6.65;;;;;;;;;;4986184;28;98273;-77
2023/01/03 14:59:42;;;;;;;10.90;5.95;;;;;;;;;;4986907;28;101332;-77
2023/01/03 15:02:10;;;;;;;8.55;5.97;;;;;;;;;;4987782;28;98798;-77
2023/01/03 15:04:47;;;;;;;7.72;5.60;;;;;;;;;;4988495;28;98330;-77
2023/01/03 15:07:25;;;;;;;12.60;5.95;;;;;;;;;;4985527;28;101603;-77
2023/01/03 15:10:00;;;;;;;19.00;9.35;;;;;;;;;;4985178;28;98417;-77
2023/01/03 15:12:27;;;;;;;11.68;5.85;;;;;;;;;;4989191;28;98638;-76
2023/01/03 15:14:54;;;;;;;11.48;6.55;;;;;;;;;;4992290;28;101889;-76
2023/01/03 15:17:22;;;;;;;9.50;7.22;;;;;;;;;;4989536;28;98271;-77
2023/01/03 15:19:51;;;;;;;9.38;6.03;;;;;;;;;;4985358;28;100690;-77
2023/01/03 15:22:19;;;;;;;13.60;6.43;;;;;;;;;;4987541;28;98844;-77
2023/01/03 15:24:49;;;;;;;10.13;6.43;;;;;;;;;;4988797;28;98382;-77
2023/01/03 15:27:31;;;;;;;11.43;6.28;;;;;;;;;;4985797;28;100399;-77
2023/01/03 15:30:09;;;;;;;9.50;6.33;;;;;;;;;;4987751;28;98144;-77
2023/01/03 15:32:44;;;;;;;10.50;6.75;;;;;;;;;;4984267;28;99430;-77
2023/01/03 15:35:21;;;;;;;7.97;5.95;;;;;;;;;;4987125;28;100400;-76
2023/01/03 15:37:51;;;;;;;8.15;5.88;;;;;;;;;;4985441;28;98432;-77